Time;durP1;ratioP1;P1;durP2;ratioP2;P2;SDS_P1;SDS_P2;PMS_P1;PMS_P2;Temp;Humidity;BMP_temperature;BMP_pressure;BME280_temperature;BME280_humidity;BME280_pressure;Samples;Min_cycle;Max_cycle;Signal;HPM_P1;HPM_P2
2023/03/13 00:01:23;;;;;;;4.63;2.28;;;;;;;16.24;48.16;96619.44;4998429;28;20038;-26
2023/03/13 00:03:49;;;;;;;5.18;2.00;;;;;;;16.32;48.68;96606.97;4999056;28;20025;-27
2023/03/13 00:06:15;;;;;;;6.90;2.33;;;;;;;16.46;48.12;96607.06;4998399;28;20023;-26
2023/03/13 00:08:41;;;;;;;4.80;1.80;;;;;;;16.60;48.00;96605.66;4998975;28;20121;-26
2023/03/13 00:11:08;;;;;;;4.32;1.95;;;;;;;16.44;47.78;96595.81;4998366;28;20446;-26
2023/03/13 00:13:35;;;;;;;6.80;2.38;;;;;;;16.51;48.38;96592.00;5004497;28;20089;-27
2023/03/13 00:16:02;;;;;;;6.13;2.10;;;;;;;16.56;48.24;96599.59;5005489;28;20093;-26
2023/03/13 00:18:28;;;;;;;5.63;2.25;;;;;;;16.43;48.55;96601.78;5005386;28;20053;-26
2023/03/13 00:21:01;;;;;;;8.82;2.38;;;;;;;16.53;48.19;96608.75;4998920;28;20066;-27
2023/03/13 00:23:27;;;;;;;;;;;;;;;16.33;49.03;96605.72;4998317;28;20085;-26
2023/03/13 00:26:04;;;;;;;6.03;2.00;;;;;;;16.35;48.40;96609.53;4998579;28;19910;-26
2023/03/13 00:28:34;;;;;;;10.77;2.60;;;;;;;16.35;48.81;96614.25;5001140;28;20049;-26
2023/03/13 00:31:10;;;;;;;7.38;2.35;;;;;;;16.23;48.31;96617.91;5000112;28;20077;-26
2023/03/13 00:33:42;;;;;;;4.90;2.28;;;;;;;16.09;48.81;96609.13;5002255;28;20041;-27
2023/03/13 00:36:11;;;;;;;3.55;1.95;;;;;;;16.09;48.69;96606.38;5005874;28;20084;-26
2023/03/13 00:38:39;;;;;;;4.13;2.22;;;;;;;16.11;48.95;96601.22;4996511;28;20056;-26
2023/03/13 00:41:12;;;;;;;5.22;2.45;;;;;;;16.29;48.60;96603.16;4997922;28;20041;-26
2023/03/13 00:43:39;;;;;;;4.38;2.28;;;;;;;16.06;49.33;96612.03;4997578;28;20112;-27
2023/03/13 00:46:05;;;;;;;4.80;2.13;;;;;;;16.06;48.91;96607.31;5004173;28;20038;-26
2023/03/13 00:48:32;;;;;;;5.57;2.45;;;;;;;15.97;48.88;96607.31;5004921;28;20436;-27
2023/03/13 00:50:58;;;;;;;4.78;2.20;;;;;;;16.11;48.54;96606.69;4997604;28;20033;-27
2023/03/13 00:53:24;;;;;;;7.80;2.10;;;;;;;15.98;48.81;96614.31;4998134;28;20030;-27
2023/03/13 00:56:12;;;;;;;4.32;2.47;;;;;;;15.98;48.79;96603.34;4997426;28;20022;-26
2023/03/13 00:58:39;;;;;;;5.50;2.15;;;;;;;15.95;48.75;96601.53;4999979;28;20076;-27
2023/03/13 01:01:23;;;;;;;6.80;2.30;;;;;;;16.19;48.22;96611.84;5007130;28;20029;-26
2023/03/13 01:03:58;;;;;;;5.13;2.45;;;;;;;16.13;48.41;96617.94;4999375;28;20498;-27
2023/03/13 01:06:27;;;;;;;5.28;2.10;;;;;;;15.93;48.86;96628.59;4999517;28;20382;-26
2023/03/13 01:08:53;;;;;;;4.32;3.05;;;;;;;15.97;48.40;96629.19;4997876;28;20025;-27
2023/03/13 01:11:22;;;;;;;7.60;2.13;;;;;;;15.96;48.70;96630.41;4997204;28;20463;-26
2023/03/13 01:13:49;;;;;;;4.22;1.95;;;;;;;15.89;48.35;96632.69;4997626;28;20026;-27
2023/03/13 01:16:17;;;;;;;5.53;2.60;;;;;;;15.85;48.61;96634.81;4997279;28;20023;-26
2023/03/13 01:18:45;;;;;;;4.43;2.30;;;;;;;15.93;48.30;96630.56;4996575;28;20022;-27
2023/03/13 01:21:12;;;;;;;5.28;2.28;;;;;;;15.66;49.17;96645.00;5002402;28;20023;-26
2023/03/13 01:23:37;;;;;;;6.00;2.63;;;;;;;15.81;48.73;96635.00;4997036;28;20651;-26
2023/03/13 01:26:07;;;;;;;4.60;2.50;;;;;;;15.83;48.90;96638.00;4997524;28;20115;-26
2023/03/13 01:28:34;;;;;;;5.13;2.50;;;;;;;15.93;48.69;96628.59;4997043;28;20032;-26
2023/03/13 01:31:08;;;;;;;3.45;2.45;;;;;;;16.04;48.98;96628.91;4997547;28;20381;-27
2023/03/13 01:33:33;;;;;;;7.18;2.85;;;;;;;15.93;49.03;96634.06;5000510;28;20029;-27
2023/03/13 01:36:02;;;;;;;6.97;3.10;;;;;;;15.91;48.79;96636.50;5006822;28;20025;-26
2023/03/13 01:38:28;;;;;;;6.57;2.80;;;;;;;15.91;48.95;96633.75;5004047;28;20022;-27
2023/03/13 01:40:53;;;;;;;4.25;2.47;;;;;;;15.81;49.39;96637.72;4996623;28;20029;-26
2023/03/13 01:43:25;;;;;;;6.60;2.75;;;;;;;15.98;48.96;96641.66;5001236;28;20026;-27
2023/03/13 01:45:56;;;;;;;4.88;2.60;;;;;;;16.01;48.83;96651.69;5002444;28;20030;-27
2023/03/13 01:48:40;;;;;;;5.47;2.83;;;;;;;16.10;48.71;96643.47;4997357;28;20541;-26
2023/03/13 01:51:15;;;;;;;6.47;2.80;;;;;;;15.85;49.34;96643.78;5002812;28;20030;-26
2023/03/13 01:53:46;;;;;;;7.00;3.35;;;;;;;16.15;48.89;96644.84;5010156;28;20026;-26
2023/03/13 01:56:29;;;;;;;7.13;3.08;;;;;;;16.06;48.93;96633.91;4996509;28;20398;-26
2023/03/13 01:58:57;;;;;;;4.57;2.70;;;;;;;15.98;49.02;96630.72;5000220;28;20033;-26
2023/03/13 02:01:23;;;;;;;12.38;2.67;;;;;;;15.99;49.01;96632.22;4998844;28;20022;-27
2023/03/13 02:03:49;;;;;;;6.53;3.17;;;;;;;15.91;49.46;96636.50;4996348;28;20072;-26
2023/03/13 02:06:16;;;;;;;10.88;3.28;;;;;;;15.99;49.75;96637.69;5001169;28;20533;-27
2023/03/13 02:08:50;;;;;;;5.85;2.00;;;;;;;16.06;49.58;96637.41;4998549;28;20026;-26
2023/03/13 02:11:34;;;;;;;5.32;2.42;;;;;;;15.92;49.75;96640.75;5001410;28;20025;-26
2023/03/13 02:14:03;;;;;;;6.18;2.75;;;;;;;15.97;50.14;96642.09;4996401;28;20084;-26
2023/03/13 02:16:30;;;;;;;7.35;2.25;;;;;;;15.90;50.75;96637.72;4996105;28;20395;-26
2023/03/13 02:18:56;;;;;;;8.07;2.40;;;;;;;16.00;50.46;96633.75;5003764;28;20032;-26
2023/03/13 02:21:52;;;;;;;6.28;2.05;;;;;;;16.04;50.93;96631.63;4995875;28;20374;-27
2023/03/13 02:24:28;;;;;;;9.02;2.38;;;;;;;15.94;51.42;96629.38;4985280;28;20034;-26
2023/03/13 02:26:54;;;;;;;8.23;2.45;;;;;;;16.06;51.33;96631.94;5002736;28;20105;-26
2023/03/13 02:29:19;;;;;;;9.40;2.67;;;;;;;16.02;51.57;96631.31;4995852;28;20101;-26
2023/03/13 02:31:46;;;;;;;10.48;4.30;;;;;;;15.87;52.59;96629.66;4995651;28;20026;-27
2023/03/13 02:34:14;;;;;;;12.63;4.32;;;;;;;15.84;53.11;96636.78;4996574;28;20054;-26
2023/03/13 02:36:40;;;;;;;12.07;3.70;;;;;;;15.82;53.16;96636.50;4995003;28;20030;-26
2023/03/13 02:39:07;;;;;;;10.32;2.45;;;;;;;15.77;53.32;96639.84;5002931;28;20026;-26
2023/03/13 02:41:33;;;;;;;9.63;2.83;;;;;;;15.79;53.58;96634.69;4998043;28;20030;-26
2023/03/13 02:43:59;;;;;;;8.52;2.42;;;;;;;15.72;53.68;96646.66;4999395;28;20049;-26
2023/03/13 02:46:24;;;;;;;7.30;2.40;;;;;;;15.73;53.98;96648.19;4996360;28;20462;-27
2023/03/13 02:48:52;;;;;;;11.45;2.85;;;;;;;15.79;53.75;96645.63;4995500;28;20026;-27
2023/03/13 02:51:27;;;;;;;10.13;3.20;;;;;;;15.71;54.10;96644.38;4995367;28;20112;-26
2023/03/13 02:53:57;;;;;;;10.15;2.75;;;;;;;15.53;54.74;96641.59;4995429;28;20022;-26
2023/03/13 02:56:25;;;;;;;10.60;2.53;;;;;;;15.60;54.18;96644.81;5001744;28;20025;-26
2023/03/13 02:58:51;;;;;;;14.82;2.33;;;;;;;15.66;54.26;96648.50;5005543;28;20022;-26
2023/03/13 03:01:16;;;;;;;11.10;3.20;;;;;;;15.63;54.36;96648.63;4999084;28;20463;-26
2023/03/13 03:03:42;;;;;;;8.82;2.70;;;;;;;15.54;54.69;96654.81;4995976;28;20434;-27
2023/03/13 03:06:07;;;;;;;10.27;2.90;;;;;;;15.79;53.90;96651.09;4995362;28;20033;-26
2023/03/13 03:08:33;;;;;;;12.23;3.80;;;;;;;15.76;54.18;96654.72;5002096;28;20029;-26
2023/03/13 03:10:59;;;;;;;9.18;3.60;;;;;;;15.53;54.71;96647.84;4997718;28;20055;-26
2023/03/13 03:13:24;;;;;;;9.95;4.65;;;;;;;15.63;54.39;96648.63;4999786;28;20029;-26
2023/03/13 03:15:50;;;;;;;10.88;4.13;;;;;;;15.85;53.55;96648.50;4996099;28;20084;-26
2023/03/13 03:18:15;;;;;;;9.93;4.00;;;;;;;15.53;54.34;96658.00;4994971;28;20439;-26
2023/03/13 03:20:41;;;;;;;9.27;3.85;;;;;;;15.44;54.18;96656.78;4995108;28;20525;-26
2023/03/13 03:23:06;;;;;;;10.38;3.60;;;;;;;15.71;53.34;96660.78;4996116;28;20022;-27
2023/03/13 03:25:32;;;;;;;6.88;3.88;;;;;;;15.63;53.01;96663.06;5001979;28;20462;-26
2023/03/13 03:27:57;;;;;;;8.55;3.40;;;;;;;15.61;52.12;96673.69;5002597;28;20496;-26
2023/03/13 03:30:23;;;;;;;8.00;4.13;;;;;;;15.68;51.51;96676.13;4994901;28;20015;-26
2023/03/13 03:32:48;;;;;;;6.95;4.85;;;;;;;15.50;52.16;96678.03;4995094;28;20023;-26
2023/03/13 03:35:14;;;;;;;10.02;4.38;;;;;;;15.59;51.80;96676.09;4997310;28;20089;-26
2023/03/13 03:37:39;;;;;;;10.57;4.22;;;;;;;15.45;52.33;96677.41;5000267;28;20467;-26
2023/03/13 03:40:05;;;;;;;9.77;4.40;;;;;;;15.66;52.14;96686.00;5002322;28;20104;-27
2023/03/13 03:42:31;;;;;;;8.02;4.00;;;;;;;15.50;52.29;96688.97;4994991;28;20026;-26
2023/03/13 03:44:57;;;;;;;12.18;4.10;;;;;;;15.53;52.03;96688.06;5001422;28;20041;-26
2023/03/13 03:47:22;;;;;;;7.43;4.03;;;;;;;15.69;52.17;96685.09;4995800;28;20026;-26
2023/03/13 03:49:48;;;;;;;6.85;3.45;;;;;;;15.48;52.74;96685.94;4993516;28;20084;-26
2023/03/13 03:52:13;;;;;;;9.85;3.78;;;;;;;15.77;51.67;96689.06;4994667;28;20026;-26
2023/03/13 03:54:38;;;;;;;10.18;3.40;;;;;;;15.40;52.54;96685.47;4995653;28;20026;-27
2023/03/13 03:57:04;;;;;;;9.82;3.40;;;;;;;15.34;52.92;96682.53;4999551;28;20021;-26
2023/03/13 03:59:29;;;;;;;8.40;3.15;;;;;;;15.41;52.67;96679.53;5003922;28;20025;-27
2023/03/13 04:01:56;;;;;;;7.10;2.60;;;;;;;15.32;53.16;96690.47;5001374;28;20050;-26
2023/03/13 04:04:22;;;;;;;9.63;3.10;;;;;;;15.11;53.93;96680.34;4995189;28;20061;-27
2023/03/13 04:06:47;;;;;;;9.40;3.15;;;;;;;15.45;53.26;96690.34;4995201;28;20112;-26
2023/03/13 04:09:13;;;;;;;12.73;3.72;;;;;;;15.48;53.46;96680.47;4997730;28;20081;-27
2023/03/13 04:11:38;;;;;;;10.05;3.45;;;;;;;15.66;52.80;96686.00;4998873;28;20033;-26
2023/03/13 04:14:04;;;;;;;7.32;3.10;;;;;;;15.45;53.21;96676.69;5004706;28;20018;-26
2023/03/13 04:16:31;;;;;;;12.70;4.07;;;;;;;15.45;52.66;96676.69;5003774;28;20421;-26
2023/03/13 04:18:56;;;;;;;5.97;3.05;;;;;;;15.42;52.47;96678.34;5006806;28;20034;-26
2023/03/13 04:21:22;;;;;;;6.60;3.65;;;;;;;15.54;52.46;96686.88;4998104;28;20019;-26
2023/03/13 04:23:47;;;;;;;7.40;3.72;;;;;;;15.44;53.05;96678.66;4998250;28;20513;-27
2023/03/13 04:26:12;;;;;;;6.38;3.10;;;;;;;15.65;52.55;96679.00;5005127;28;20032;-26
2023/03/13 04:28:38;;;;;;;11.73;4.20;;;;;;;15.67;52.19;96665.66;4997975;28;20105;-26
2023/03/13 04:31:03;;;;;;;7.40;3.63;;;;;;;15.42;52.87;96670.13;5005293;28;20550;-26
2023/03/13 04:33:29;;;;;;;9.80;4.03;;;;;;;15.34;52.79;96674.34;5004452;28;20114;-26
2023/03/13 04:35:54;;;;;;;10.85;4.47;;;;;;;15.46;52.67;96678.94;5005083;28;20117;-26
2023/03/13 04:38:40;;;;;;;6.43;3.47;;;;;;;15.36;52.82;96674.66;4998908;28;20064;-27
2023/03/13 04:41:05;;;;;;;8.70;3.47;;;;;;;15.64;52.27;96672.78;4997744;28;20066;-26
2023/03/13 04:43:31;;;;;;;12.15;4.18;;;;;;;15.48;52.58;96675.00;5004933;28;20073;-26
2023/03/13 04:45:56;;;;;;;8.90;3.80;;;;;;;15.37;53.18;96678.91;5003193;28;20022;-26
2023/03/13 04:48:22;;;;;;;10.77;3.90;;;;;;;15.28;53.39;96684.38;4999456;28;20080;-26
2023/03/13 04:50:48;;;;;;;11.48;3.70;;;;;;;15.37;53.17;96673.47;4997805;28;20026;-27
2023/03/13 04:53:14;;;;;;;9.70;4.05;;;;;;;15.31;53.49;96678.00;4997725;28;20021;-27
2023/03/13 04:55:40;;;;;;;9.23;4.13;;;;;;;15.30;53.56;96687.41;4998167;28;20021;-26
2023/03/13 04:58:05;;;;;;;12.40;3.90;;;;;;;15.28;54.15;96689.84;4997524;28;20026;-26
2023/03/13 05:00:31;;;;;;;8.18;3.50;;;;;;;15.54;53.36;96689.59;4997087;28;20494;-26
2023/03/13 05:02:56;;;;;;;9.55;3.88;;;;;;;15.43;53.60;96685.31;5003797;28;20046;-26
2023/03/13 05:05:22;;;;;;;11.25;3.85;;;;;;;15.39;53.91;96686.66;4997230;28;20458;-26
2023/03/13 05:07:47;;;;;;;11.45;4.13;;;;;;;15.46;53.84;96676.19;4998027;28;20386;-27
2023/03/13 05:10:13;;;;;;;9.40;3.55;;;;;;;15.37;54.22;96678.16;4997213;28;20029;-26
2023/03/13 05:12:38;;;;;;;9.02;3.75;;;;;;;15.32;54.40;96682.25;4997624;28;20033;-26
2023/03/13 05:15:04;;;;;;;7.63;3.20;;;;;;;15.39;54.19;96687.44;4999470;28;20018;-26
2023/03/13 05:17:29;;;;;;;11.77;3.47;;;;;;;15.43;54.44;96696.25;5007625;28;20022;-26
2023/03/13 05:19:55;;;;;;;14.98;4.00;;;;;;;15.25;54.79;96696.19;5004734;28;20014;-26
2023/03/13 05:22:20;;;;;;;10.25;3.95;;;;;;;15.37;54.28;96697.28;4997182;28;20069;-26
2023/03/13 05:24:46;;;;;;;11.77;3.78;;;;;;;15.34;54.52;96704.41;4996895;28;20049;-27
2023/03/13 05:27:11;;;;;;;12.15;3.50;;;;;;;15.43;54.48;96712.66;4997809;28;20067;-26
2023/03/13 05:29:36;;;;;;;9.35;4.38;;;;;;;15.25;55.53;96707.13;5003038;28;20084;-26
2023/03/13 05:32:02;;;;;;;8.23;3.47;;;;;;;15.27;55.23;96712.91;5004008;28;20435;-26
2023/03/13 05:34:27;;;;;;;12.35;3.67;;;;;;;15.28;55.20;96717.16;4996902;28;20022;-27
2023/03/13 05:36:53;;;;;;;7.90;3.40;;;;;;;15.14;55.45;96719.69;5002617;28;20027;-26
2023/03/13 05:39:18;;;;;;;9.90;3.75;;;;;;;15.32;55.07;96723.25;4996243;28;20026;-27
2023/03/13 05:41:44;;;;;;;8.88;3.33;;;;;;;15.44;54.76;96727.84;5003831;28;20027;-26
2023/03/13 05:44:10;;;;;;;10.15;3.13;;;;;;;15.36;55.10;96734.03;4997240;28;20022;-26
2023/03/13 05:46:35;;;;;;;11.77;3.25;;;;;;;15.14;55.15;96731.38;5003662;28;20026;-26
2023/03/13 05:49:00;;;;;;;11.90;3.63;;;;;;;15.18;55.04;96729.25;5007199;28;20026;-26
2023/03/13 05:51:26;;;;;;;9.25;2.97;;;;;;;15.36;54.45;96725.81;4998387;28;20534;-26
2023/03/13 05:53:51;;;;;;;9.80;3.00;;;;;;;15.24;54.08;96727.44;4996582;28;20024;-26
2023/03/13 05:56:17;;;;;;;7.63;3.13;;;;;;;15.25;54.10;96726.25;4996304;28;20091;-26
2023/03/13 05:58:42;;;;;;;7.75;2.50;;;;;;;15.20;53.83;96720.63;4997011;28;20025;-26
2023/03/13 06:01:10;;;;;;;10.55;3.63;;;;;;;15.08;54.31;96727.72;5001211;28;20030;-26
2023/03/13 06:03:46;;;;;;;7.93;2.58;;;;;;;15.26;53.44;96722.31;4998205;28;20402;-26
2023/03/13 06:06:11;;;;;;;10.45;2.67;;;;;;;15.18;53.76;96729.25;5001456;28;20077;-26
2023/03/13 06:08:37;;;;;;;7.63;2.42;;;;;;;15.00;54.68;96729.16;4996849;28;20027;-26
2023/03/13 06:11:04;;;;;;;9.90;2.80;;;;;;;15.06;54.38;96733.63;4996122;28;20019;-26
2023/03/13 06:13:29;;;;;;;7.63;2.97;;;;;;;15.26;53.81;96730.50;4996069;28;20109;-26
2023/03/13 06:15:56;;;;;;;6.85;2.50;;;;;;;15.46;53.34;96730.09;4996926;28;20125;-27
2023/03/13 06:18:23;;;;;;;5.80;2.22;;;;;;;15.52;53.02;96717.38;4995107;28;20022;-26
2023/03/13 06:20:49;;;;;;;11.20;2.58;;;;;;;15.29;54.09;96718.69;5003019;28;20018;-26
2023/03/13 06:23:15;;;;;;;7.82;2.28;;;;;;;15.39;53.71;96722.19;4996099;28;20234;-26
2023/03/13 06:25:54;;;;;;;;;;;;;;;;;;;;;
2023/03/13 06:28:19;;;;;;;9.48;2.40;;;;;;;15.36;53.91;96726.59;4995868;28;20024;-26
2023/03/13 06:30:46;;;;;;;10.55;3.90;;;;;;;15.42;53.60;96721.31;4995210;28;20113;-27
2023/03/13 06:33:11;;;;;;;10.90;3.40;;;;;;;15.66;53.33;96724.28;4996566;28;20037;-26
2023/03/13 06:35:53;;;;;;;9.80;2.47;;;;;;;15.67;53.34;96723.06;5001630;28;20030;-26
2023/03/13 06:38:18;;;;;;;14.65;3.60;;;;;;;15.72;53.19;96730.66;5002037;28;20120;-27
2023/03/13 06:40:44;;;;;;;14.43;4.00;;;;;;;15.33;54.26;96730.22;5000469;28;20449;-26
2023/03/13 06:43:09;;;;;;;9.20;3.00;;;;;;;15.38;54.10;96731.59;4998478;28;20386;-26
2023/03/13 06:45:35;;;;;;;9.18;3.03;;;;;;;15.60;53.79;96731.53;4995807;28;20034;-27
2023/03/13 06:48:02;;;;;;;8.73;3.28;;;;;;;15.57;53.89;96727.00;4995748;28;20038;-26
2023/03/13 06:50:27;;;;;;;14.48;2.83;;;;;;;15.67;53.59;96731.28;5002621;28;20030;-26
2023/03/13 06:52:53;;;;;;;18.63;2.90;;;;;;;15.67;53.62;96731.28;4999585;28;20048;-26
2023/03/13 06:55:18;;;;;;;7.78;2.58;;;;;;;15.88;53.05;96746.81;4998370;28;20034;-27
2023/03/13 06:57:48;;;;;;;9.30;2.75;;;;;;;15.88;53.32;96746.03;5002716;28;20025;-27
2023/03/13 07:00:14;;;;;;;11.40;2.50;;;;;;;15.63;53.94;96758.75;4995331;28;20019;-26
2023/03/13 07:02:40;;;;;;;9.23;3.15;;;;;;;15.69;54.36;96748.00;4995938;28;20054;-26
2023/03/13 07:05:06;;;;;;;13.25;2.40;;;;;;;15.82;53.27;96745.91;4995586;28;20026;-27
2023/03/13 07:07:32;;;;;;;7.93;2.63;;;;;;;15.88;53.04;96757.75;5002029;28;20022;-27
2023/03/13 07:09:58;;;;;;;13.02;2.80;;;;;;;15.98;52.89;96758.50;5001909;28;20105;-26
2023/03/13 07:12:23;;;;;;;11.82;2.58;;;;;;;16.07;52.65;96767.50;4995055;28;20026;-26
2023/03/13 07:14:49;;;;;;;8.45;2.35;;;;;;;16.10;52.38;96763.84;4996022;28;20030;-26
2023/03/13 07:17:14;;;;;;;9.18;2.17;;;;;;;15.98;52.35;96766.72;4999281;28;20029;-27
2023/03/13 07:19:40;;;;;;;5.60;1.80;;;;;;;15.99;52.21;96763.53;4998508;28;20018;-26
2023/03/13 07:22:05;;;;;;;6.43;2.00;;;;;;;16.05;52.05;96763.72;4995245;28;20026;-26
2023/03/13 07:24:30;;;;;;;7.30;2.50;;;;;;;16.10;52.42;96769.31;4995105;28;20113;-26
2023/03/13 07:26:56;;;;;;;7.05;1.85;;;;;;;16.15;52.36;96776.94;5002058;28;20096;-26
2023/03/13 07:29:21;;;;;;;10.48;3.22;;;;;;;15.88;52.68;96787.84;4994538;28;20022;-26
2023/03/13 07:31:47;;;;;;;4.90;2.15;;;;;;;15.96;52.84;96786.31;4995057;28;20022;-27
2023/03/13 07:34:13;;;;;;;8.98;2.22;;;;;;;16.04;52.78;96787.56;4995925;28;20026;-26
2023/03/13 07:36:40;;;;;;;5.45;2.75;;;;;;;16.00;53.15;96788.91;4995186;28;20097;-27
2023/03/13 07:39:13;;;;;;;7.68;2.47;;;;;;;16.08;53.09;96782.69;5001977;28;20034;-26
2023/03/13 07:41:38;;;;;;;;;;;;;;;16.10;53.27;96784.97;5005996;28;20029;-26
2023/03/13 07:44:04;;;;;;;9.90;2.90;;;;;;;16.08;53.93;96796.38;5001215;28;19910;-27
2023/03/13 07:46:29;;;;;;;8.13;2.78;;;;;;;16.15;53.85;96793.38;4999358;28;20021;-26
2023/03/13 07:48:55;;;;;;;11.00;2.83;;;;;;;16.12;54.16;96809.91;5006555;28;20076;-27
2023/03/13 07:51:23;;;;;;;6.20;2.55;;;;;;;16.03;54.26;96805.19;4998592;28;20080;-26
2023/03/13 07:53:49;;;;;;;11.93;3.00;;;;;;;16.12;54.18;96799.72;5011799;28;20021;-26
2023/03/13 07:56:17;;;;;;;9.07;3.88;;;;;;;16.08;54.00;96798.34;5008483;28;20053;-26
2023/03/13 07:58:43;;;;;;;16.63;6.53;;;;;;;16.11;53.89;96805.66;4999202;28;20441;-26
2023/03/13 08:01:17;;;;;;;19.52;7.80;;;;;;;16.03;54.15;96801.69;4998504;28;20068;-26
2023/03/13 08:03:44;;;;;;;15.07;6.90;;;;;;;16.01;54.09;96810.34;4999096;28;20029;-26
2023/03/13 08:06:12;;;;;;;13.55;4.93;;;;;;;16.07;53.71;96794.84;4998677;28;20022;-26
2023/03/13 08:08:38;;;;;;;11.02;5.75;;;;;;;16.21;53.53;96801.72;5005394;28;20124;-26
2023/03/13 08:11:06;;;;;;;17.85;5.65;;;;;;;15.88;54.73;96800.75;5001037;28;20022;-27
2023/03/13 08:13:33;;;;;;;11.48;4.65;;;;;;;16.15;54.16;96819.97;5001855;28;20105;-26
2023/03/13 08:16:13;;;;;;;14.93;4.68;;;;;;;16.17;54.07;96812.81;4998916;28;20029;-27
2023/03/13 08:18:41;;;;;;;14.52;5.82;;;;;;;16.22;53.70;96825.13;5005563;28;20022;-26
2023/03/13 08:21:09;;;;;;;14.02;5.30;;;;;;;16.24;53.92;96816.47;4998529;28;20466;-27
2023/03/13 08:23:37;;;;;;;13.70;5.30;;;;;;;16.28;53.69;96811.63;4998160;28;20041;-26
2023/03/13 08:26:09;;;;;;;13.07;4.03;;;;;;;16.25;53.98;96818.75;5005195;28;20025;-26
2023/03/13 08:28:35;;;;;;;14.32;4.47;;;;;;;16.03;54.45;96818.88;5004693;28;20084;-26
2023/03/13 08:31:11;;;;;;;11.30;3.92;;;;;;;16.36;53.80;96832.00;4998631;28;20034;-26
2023/03/13 08:33:37;;;;;;;11.30;4.18;;;;;;;16.09;54.67;96843.66;4997876;28;20439;-26
2023/03/13 08:36:12;;;;;;;12.35;4.80;;;;;;;16.24;54.53;96838.38;4998850;28;20081;-26
2023/03/13 08:38:41;;;;;;;14.57;6.15;;;;;;;16.56;53.51;96840.53;4997754;28;20100;-26
2023/03/13 08:41:07;;;;;;;12.88;6.05;;;;;;;16.52;54.14;96845.41;4997465;28;20025;-26
2023/03/13 08:43:33;;;;;;;11.52;6.10;;;;;;;16.69;53.78;96851.38;5000113;28;20153;-26
2023/03/13 08:45:59;;;;;;;12.23;6.15;;;;;;;16.61;53.78;96847.38;5001936;28;20500;-26
2023/03/13 08:48:24;;;;;;;14.05;5.78;;;;;;;16.51;54.46;96852.84;4998395;28;20056;-26
2023/03/13 08:51:05;;;;;;;13.73;5.50;;;;;;;16.76;53.89;96848.31;4997529;28;20053;-26
2023/03/13 08:53:32;;;;;;;14.02;5.85;;;;;;;16.62;54.32;96857.91;4997920;28;20105;-26
2023/03/13 08:55:58;;;;;;;14.45;6.43;;;;;;;16.66;54.57;96853.06;4996911;28;20022;-26
2023/03/13 08:58:23;;;;;;;10.45;5.40;;;;;;;16.34;56.08;96861.78;5004218;28;20100;-26
2023/03/13 09:00:49;;;;;;;9.43;4.15;;;;;;;16.45;55.86;96857.41;5011289;28;20022;-26
2023/03/13 09:03:14;;;;;;;10.77;4.63;;;;;;;16.66;55.29;96858.53;4997433;28;20053;-26
2023/03/13 09:05:40;;;;;;;10.48;4.03;;;;;;;16.64;55.55;96855.47;4996841;28;20105;-26
2023/03/13 09:08:05;;;;;;;9.77;4.35;;;;;;;16.57;55.89;96853.00;4997194;28;20375;-26
2023/03/13 09:10:35;;;;;;;10.55;4.20;;;;;;;16.75;55.60;96861.25;4997355;28;20022;-26
2023/03/13 09:13:20;;;;;;;11.07;4.47;;;;;;;16.65;56.45;96854.25;5006345;28;20083;-26
2023/03/13 09:15:56;;;;;;;10.55;4.20;;;;;;;16.70;56.22;96845.44;4991982;28;20038;-26
2023/03/13 09:18:22;;;;;;;12.10;3.92;;;;;;;16.55;58.10;96851.94;5009977;28;20355;-26
2023/03/13 09:20:47;;;;;;;10.07;3.38;;;;;;;16.74;57.17;96865.22;4997663;28;20072;-27
2023/03/13 09:23:13;;;;;;;12.80;4.63;;;;;;;16.58;58.34;96861.97;4997110;28;20065;-26
2023/03/13 09:25:38;;;;;;;8.82;3.83;;;;;;;16.68;58.02;96858.84;4997093;28;20109;-26
2023/03/13 09:28:04;;;;;;;12.43;4.22;;;;;;;16.68;58.17;96845.16;4997544;28;20029;-26
2023/03/13 09:30:29;;;;;;;10.05;4.00;;;;;;;16.68;58.45;96845.16;5003382;28;20018;-26
2023/03/13 09:32:55;;;;;;;10.57;3.80;;;;;;;16.68;58.94;96856.09;5003490;28;20037;-26
2023/03/13 09:35:20;;;;;;;12.75;3.80;;;;;;;16.72;58.50;96851.22;4997534;28;20021;-26
2023/03/13 09:37:46;;;;;;;10.05;4.15;;;;;;;16.76;58.44;96851.06;4996937;28;20344;-26
2023/03/13 09:40:17;;;;;;;9.95;3.55;;;;;;;16.73;58.76;96851.97;4997751;28;20465;-26
2023/03/13 09:42:54;;;;;;;10.80;3.08;;;;;;;16.80;59.06;96857.16;5002452;28;20133;-26
2023/03/13 09:45:45;;;;;;;8.63;3.60;;;;;;;16.91;58.53;96848.47;4997612;28;20485;-26
2023/03/13 09:48:23;;;;;;;12.40;3.75;;;;;;;16.90;58.80;96855.19;5004846;28;20028;-26
2023/03/13 09:51:03;;;;;;;10.00;2.90;;;;;;;16.92;58.86;96850.00;4996531;28;20035;-26
2023/03/13 09:53:42;;;;;;;11.40;3.28;;;;;;;16.82;59.07;96844.50;4997180;28;20029;-26
2023/03/13 09:56:21;;;;;;;14.32;3.47;;;;;;;16.92;59.07;96852.75;4996278;28;20470;-26
2023/03/13 09:58:57;;;;;;;15.43;4.18;;;;;;;16.86;59.21;96856.09;5003110;28;20031;-26
2023/03/13 10:01:30;;;;;;;9.88;2.67;;;;;;;16.90;59.09;96852.44;4996247;28;20022;-26
2023/03/13 10:04:29;;;;;;;9.67;3.73;;;;;;;17.10;58.07;96852.72;4996499;28;20026;-26
2023/03/13 10:06:54;;;;;;;8.55;2.58;;;;;;;16.98;58.47;96856.38;5009231;28;20054;-26
2023/03/13 10:09:27;;;;;;;12.35;3.28;;;;;;;16.95;58.62;96851.81;4996234;28;20102;-26
2023/03/13 10:12:04;;;;;;;14.15;2.63;;;;;;;17.00;58.17;96848.47;4997077;28;20438;-26
2023/03/13 10:14:42;;;;;;;10.27;2.60;;;;;;;16.98;58.29;96850.91;4996151;28;20038;-26
2023/03/13 10:17:14;;;;;;;8.10;3.08;;;;;;;17.14;57.88;96847.84;4999543;28;20473;-26
2023/03/13 10:19:42;;;;;;;8.07;2.80;;;;;;;17.08;57.71;96844.19;5005711;28;20092;-26
2023/03/13 10:22:15;;;;;;;9.15;2.85;;;;;;;17.11;57.64;96843.28;4996419;28;20101;-26
2023/03/13 10:24:55;;;;;;;7.47;2.10;;;;;;;17.21;57.14;96842.03;4995997;28;20034;-26
2023/03/13 10:27:21;;;;;;;7.32;1.92;;;;;;;17.14;57.85;96840.38;4995859;28;20489;-26
2023/03/13 10:29:46;;;;;;;8.93;2.42;;;;;;;17.08;57.65;96830.47;4995883;28;20026;-26
2023/03/13 10:32:15;;;;;;;6.03;2.10;;;;;;;17.12;57.17;96831.84;5002802;28;20061;-26
2023/03/13 10:35:00;;;;;;;6.88;1.95;;;;;;;17.26;56.73;96829.69;5000399;28;20104;-26
2023/03/13 10:37:28;;;;;;;7.03;1.90;;;;;;;17.19;57.22;96833.50;5002900;28;20378;-26
2023/03/13 10:40:09;;;;;;;9.27;2.60;;;;;;;17.14;57.23;96842.38;4995593;28;20430;-26
2023/03/13 10:42:42;;;;;;;7.07;2.08;;;;;;;17.24;56.76;96836.41;4995820;28;20042;-26
2023/03/13 10:45:15;;;;;;;10.88;2.85;;;;;;;17.28;56.87;96836.25;4995574;28;20026;-26
2023/03/13 10:47:41;;;;;;;7.40;2.13;;;;;;;17.17;57.34;96835.97;4998367;28;20029;-26
2023/03/13 10:50:16;;;;;;;6.32;2.13;;;;;;;17.20;56.69;96840.50;4999008;28;20041;-26
2023/03/13 10:52:44;;;;;;;7.80;2.45;;;;;;;17.24;56.22;96836.41;5002620;28;20057;-26
2023/03/13 10:55:15;;;;;;;7.68;2.10;;;;;;;17.21;55.87;96845.53;4995326;28;20080;-26
2023/03/13 10:57:51;;;;;;;5.80;2.08;;;;;;;17.25;55.11;96837.16;4996095;28;20026;-26
2023/03/13 11:00:42;;;;;;;7.50;1.70;;;;;;;17.30;54.56;96842.03;5002813;28;20030;-26
2023/03/13 11:03:32;;;;;;;4.32;1.70;;;;;;;17.33;54.26;96851.28;4989083;28;20042;-26
2023/03/13 11:06:00;;;;;;;6.90;1.80;;;;;;;17.28;54.35;96844.47;4995349;28;20443;-26
2023/03/13 11:08:32;;;;;;;4.50;1.60;;;;;;;17.26;53.84;96835.94;5001875;28;20080;-26
2023/03/13 11:11:01;;;;;;;8.80;2.00;;;;;;;17.36;53.84;96829.22;5002590;28;20113;-26
2023/03/13 11:13:39;;;;;;;4.82;1.50;;;;;;;17.35;53.65;96826.94;4995103;28;20350;-26
2023/03/13 11:16:21;;;;;;;7.75;2.15;;;;;;;17.28;54.28;96824.53;5002589;28;20557;-26
2023/03/13 11:19:12;;;;;;;6.53;1.77;;;;;;;17.36;54.71;96822.97;5001049;28;20022;-26
2023/03/13 11:21:51;;;;;;;11.40;3.58;;;;;;;17.31;55.05;96829.81;5003368;28;20068;-26
2023/03/13 11:24:47;;;;;;;6.35;2.70;;;;;;;17.38;55.45;96826.00;5007426;28;20029;-26
2023/03/13 11:27:41;;;;;;;10.95;2.80;;;;;;;17.39;55.94;96830.28;4994797;28;20034;-26
2023/03/13 11:31:04;;;;;;;7.97;2.75;;;;;;;17.33;56.08;96827.38;5001973;28;20030;-26
2023/03/13 11:34:09;;;;;;;11.38;3.65;;;;;;;17.36;56.38;96829.22;4960467;28;20038;-26
2023/03/13 11:36:42;;;;;;;7.47;3.00;;;;;;;17.36;56.30;96823.72;4970439;28;20038;-26
2023/03/13 11:39:31;;;;;;;12.30;3.55;;;;;;;17.38;56.76;96829.50;4962866;28;20057;-26
2023/03/13 11:42:07;;;;;;;9.57;2.53;;;;;;;17.34;57.01;96823.41;4959092;28;20035;-26